Trout Valley, Illinois
Current Conditions -  °F | °C
As of 6:52 PM on Saturday 22 Nov 2014 (Local Time) from KPWK Reporting Station
Broken Clouds Broken Clouds  
Wind Chill: 51°   Ceiling: 5000
Heat Index: 51°   Visibility: 9mi
Dew Point: 46°   Wind: 14mph
Humidity: 83%   Direction: 200°SSW
Pressure: 29.87"   Gusts: NA
Location:  42.2198°N, 88.2351°W
Report Text: KPWK 230052Z 20012KT 9SM FEW022 BKN050 11/08 A2987 RMK AO2 SLP117 T01060078
Loading
Personal Weather Stations






























Interactive Weather Map New forecast layout! Learn more

10-Day Weather Forecast

Advertisements
Track Severe Weather on mobile